Continental, OH (45837)

4:37 AM EDT on September 21, 2014 (GMT -0400)
Dan Halter farm | Change Station
CLOSE
Current Station
Personal Weather Station
Location: Oakwood, OH
Elevation: 702 ft
Nearby Weather Stations

Elev 702 ft 41.11 °N, 84.40 °W | Updated 13 minutes ago

Overcast
Overcast
68.5 °F
Feels Like 68.5 °F
N
6.0
Wind Variable Wind from WSW
Gusts 8.0 mph

Today
High -- | Low -- °F
--% Chance of Precip.
Yesterday
High -- | Low -- °F
Precip. -- in
7:23 AM 7:35 PM
Waning Crescent, 8% visible
Pressure 29.75 in
Visibility 6.0 miles
Clouds Scattered Clouds 2200 ft
Mostly Cloudy 9000 ft
Overcast 11000 ft
Dew Point 68 °F
Humidity 97%
Rainfall 0.15 in
Snow Depth Not available.
UV 0 out of 12
Pollen 4.80 out of 12
Air Quality Not available.
Flu Activity Not available.
SPECI KAOH 210822Z AUTO 22011KT 6SM -RA BR SCT022 BKN090 OVC110 21/20 A2975 RMK AO2 P0000 T02110200

More Conditions Fewer Conditions

Pressure 29.75 in
Visibility 6.0 miles
Clouds Scattered Clouds 2200 ft
Mostly Cloudy 9000 ft
Overcast 11000 ft
Dew Point 68 °F
Humidity 97%
Rainfall 0.15 in
Snow Depth Not available.
UV 0 out of 12
Pollen 4.80 out of 12
Air Quality Not available.
Flu Activity Not available.
SPECI KAOH 210822Z AUTO 22011KT 6SM -RA BR SCT022 BKN090 OVC110 21/20 A2975 RMK AO2 P0000 T02110200

More Conditions Fewer Conditions

10-Day Weather Forecast

Almanac

Astronomy

Sep. 21, 2014 Rise Set
Actual Time 7:23 AM EDT 7:35 PM EDT
Civil Twilight 6:56 AM EDT 8:03 PM EDT
Nautical Twilight 6:23 AM EDT 8:35 PM EDT
Astronomical Twilight 5:50 AM EDT 9:08 PM EDT
Moon 4:55 AM EDT 6:12 PM EDT
Length of Visible Light 13h 07m
Length of Day
12h 12m
Tomorrow will be 2m 43s shorter.
Waning Crescent, 8% of the Moon is Illuminated
Today
Waning Crescent
Sep 24
New
Oct 1
First Quarter
Oct 8
Full
Oct 15
Last Quarter

Today's Extremes

State Highs State Lows

Community

WunderPhotos

Upload Photos

1,755,101 photos uploaded!

Nearby

Snow Depth

Station Depth Elevation
No new snow has been reported.

Earthquake Activity

City Distance Mag. Time & Date
No recent earthquake activity has been reported nearby.
Minimum magnitude displayed is 2.5.

Coastal Water Temperatures

Place Temperature
No Stations Reporting

Nearby Weather Stations